.
WxDataArchive / Data Records for 2011-02-25
2011-02-24 February 2011 2011-02-26

Data Records for Friday, 25 February 2011

Time	Temp	Chill	HIndex	Humid	Dewpt	 Wind 	HiWind	WindDir	Rain 	Barom 
-----	----	-----	------	-----	-----	------	------	-------	-----	----- 
00:00	32.1	28.2	32.1	83	27.5	4	11	90	0.00	29.825 
00:05	31.9	31.9	31.9	83	27.3	3	12	90	0.00	29.825 
00:10	31.9	26.1	31.9	82	27.0	6	19	112	0.00	29.825 
00:15	31.8	26.0	31.8	82	26.9	6	13	112	0.00	29.798 
00:20	31.8	26.0	31.8	82	26.9	6	19	112	0.00	29.798 
00:25	31.8	27.8	31.8	82	26.9	4	12	90	0.00	29.798 
00:30	31.8	26.8	31.8	82	26.9	5	15	112	0.00	29.801 
00:35	31.6	26.6	31.6	82	26.7	5	11	90	0.00	29.801 
00:40	31.6	27.6	31.6	83	27.0	4	15	90	0.00	29.801 
00:45	31.3	24.0	31.3	82	26.5	8	20	112	0.00	29.770 
00:50	31.3	25.4	31.3	81	26.2	6	17	112	0.00	29.770 
00:55	31.2	25.3	31.2	80	25.8	6	16	112	0.00	29.770 
01:00	31.0	23.6	31.0	80	25.6	8	19	112	0.00	29.739 
01:05	30.9	23.5	30.9	81	25.8	8	25	112	0.00	29.739 
01:10	30.7	24.7	30.7	80	25.3	6	19	90	0.00	29.739 
01:15	30.6	25.4	30.6	80	25.2	5	15	112	0.00	29.752 
01:20	30.6	26.5	30.6	81	25.5	4	17	90	0.00	29.752 
01:25	30.4	26.2	30.4	81	25.3	4	13	112	0.00	29.752 
01:30	30.4	26.2	30.4	81	25.3	4	14	112	0.00	29.783 
01:35	30.3	26.1	30.3	82	25.5	4	11	90	0.00	29.783 
01:40	30.1	25.9	30.1	83	25.6	4	11	112	0.00	29.783 
01:45	30.0	25.8	30.0	83	25.5	4	11	112	0.00	29.702 
01:50	29.8	29.8	29.8	84	25.6	3	11	90	0.00	29.702 
01:55	29.7	25.4	29.7	84	25.5	4	14	112	0.00	29.702 
02:00	29.7	29.7	29.7	84	25.5	3	7	112	0.00	29.757 
02:05	29.5	25.2	29.5	85	25.6	4	11	22	0.00	29.757 
02:10	29.4	29.4	29.4	86	25.7	2	6	112	0.00	29.757 
02:15	29.3	29.3	29.3	87	25.9	3	8	112	0.00	29.738 
02:20	29.1	29.1	29.1	88	26.0	2	9	68	0.00	29.738 
02:25	29.0	29.0	29.0	88	25.9	3	10	45	0.00	29.738 
02:30	29.0	29.0	29.0	88	25.9	2	11	112	0.00	29.734 
02:35	28.8	28.8	28.8	89	26.0	3	7	90	0.00	29.734 
02:40	28.7	28.7	28.7	89	25.9	3	10	22	0.00	29.734 
02:45	28.5	28.5	28.5	90	25.9	3	8	112	0.00	29.726 
02:50	28.5	28.5	28.5	90	25.9	3	9	68	0.00	29.726 
02:55	28.4	28.4	28.4	90	25.8	3	10	22	0.00	29.726 
03:00	28.4	28.4	28.4	91	26.1	2	7	22	0.00	29.719 
03:05	28.4	23.9	28.4	91	26.1	4	11	45	0.00	29.719 
03:10	28.2	23.7	28.2	91	25.9	4	11	135	0.00	29.719 
03:15	28.2	28.2	28.2	92	26.2	3	9	22	0.00	29.715 
03:20	28.2	28.2	28.2	92	26.2	3	8	68	0.00	29.715 
03:25	28.1	28.1	28.1	92	26.1	3	9	90	0.00	29.715 
03:30	28.1	28.1	28.1	92	26.1	3	10	90	0.00	29.722 
03:35	28.1	28.1	28.1	92	26.1	3	9	45	0.00	29.722 
03:40	28.1	28.1	28.1	92	26.1	1	8	22	0.00	29.722 
03:45	28.1	28.1	28.1	92	26.1	2	6	112	0.00	29.721 
03:50	28.1	28.1	28.1	93	26.3	1	3	338	0.00	29.721 
03:55	28.1	28.1	28.1	93	26.3	1	5	338	0.00	29.721 
04:00	28.1	28.1	28.1	93	26.3	2	9	22	0.00	29.723 
04:05	28.1	28.1	28.1	93	26.3	1	6	338	0.00	29.723 
04:10	28.1	28.1	28.1	93	26.3	2	5	45	0.00	29.723 
04:15	28.1	28.1	28.1	93	26.3	1	3	45	0.00	29.722 
04:20	28.1	28.1	28.1	93	26.3	2	6	45	0.00	29.722 
04:25	28.1	28.1	28.1	93	26.3	2	6	22	0.00	29.722 
04:30	28.1	28.1	28.1	93	26.3	3	11	0	0.00	29.724 
04:35	28.1	28.1	28.1	93	26.3	1	5	22	0.00	29.724 
04:40	28.1	28.1	28.1	93	26.3	1	5	0	0.00	29.724 
04:45	28.1	28.1	28.1	93	26.3	2	6	45	0.00	29.727 
04:50	28.1	28.1	28.1	93	26.3	1	4	338	0.00	29.727 
04:55	28.1	28.1	28.1	94	26.6	1	4	315	0.00	29.727 
05:00	28.1	28.1	28.1	94	26.6	1	5	338	0.00	29.752 
05:05	28.1	28.1	28.1	94	26.6	1	5	22	0.00	29.752 
05:10	28.1	28.1	28.1	94	26.6	2	5	338	0.00	29.752 
05:15	28.1	28.1	28.1	94	26.6	1	3	0	0.00	29.758 
05:20	27.9	27.9	27.9	94	26.4	1	3	0	0.00	29.758 
05:25	27.9	27.9	27.9	94	26.4	1	4	22	0.00	29.758 
05:30	27.9	27.9	27.9	94	26.4	1	2	0	0.00	29.774 
05:35	27.9	27.9	27.9	94	26.4	1	4	315	0.00	29.774 
05:40	27.9	27.9	27.9	94	26.4	1	3	0	0.00	29.774 
05:45	27.9	27.9	27.9	94	26.4	1	5	22	0.00	29.786 
05:50	27.9	27.9	27.9	94	26.4	1	3	22	0.00	29.786 
05:55	27.9	27.9	27.9	94	26.4	1	6	22	0.00	29.786 
06:00	27.8	27.8	27.8	94	26.3	1	3	22	0.00	29.793 
06:05	27.8	27.8	27.8	94	26.3	1	4	338	0.00	29.793 
06:10	27.8	27.8	27.8	94	26.3	1	4	0	0.00	29.793 
06:15	27.8	27.8	27.8	94	26.3	2	5	315	0.00	29.788 
06:20	27.6	27.6	27.6	94	26.1	1	4	338	0.00	29.788 
06:25	27.6	27.6	27.6	94	26.1	1	7	22	0.00	29.788 
06:30	27.6	27.6	27.6	94	26.1	1	5	315	0.00	29.793 
06:35	27.6	27.6	27.6	94	26.1	1	4	0	0.00	29.793 
06:40	27.6	27.6	27.6	94	26.1	1	3	338	0.00	29.793 
06:45	27.5	27.5	27.5	94	26.0	1	3	22	0.00	29.800 
06:50	27.5	27.5	27.5	94	26.0	1	5	315	0.00	29.800 
06:55	27.5	27.5	27.5	94	26.0	1	4	22	0.00	29.800 
07:00	27.5	27.5	27.5	94	26.0	1	3	22	0.00	29.809 
07:05	27.5	27.5	27.5	94	26.0	1	3	22	0.00	29.809 
07:10	27.5	27.5	27.5	94	26.0	1	3	22	0.00	29.809 
07:15	27.5	27.5	27.5	94	26.0	1	5	338	0.00	29.822 
07:20	27.5	27.5	27.5	94	26.0	1	2	0	0.00	29.822 
07:25	27.5	27.5	27.5	94	26.0	1	4	22	0.00	29.822 
07:30	27.5	27.5	27.5	94	26.0	0	2	22	0.00	29.839 
07:35	27.5	27.5	27.5	94	26.0	0	1	45	0.00	29.839 
07:40	27.5	27.5	27.5	94	26.0	0	2	22	0.00	29.839 
07:45	27.5	27.5	27.5	94	26.0	1	4	315	0.00	29.854 
07:50	27.2	27.2	27.2	94	25.7	1	3	338	0.00	29.854 
07:55	27.0	27.0	27.0	94	25.5	1	4	0	0.00	29.854 
08:00	26.9	26.9	26.9	94	25.4	1	6	22	0.00	29.881 
08:05	26.7	26.7	26.7	94	25.2	1	3	315	0.00	29.881 
08:10	26.6	26.6	26.6	94	25.1	1	3	315	0.00	29.881 
08:15	26.6	26.6	26.6	94	25.1	1	3	338	0.00	29.901 
08:20	26.4	26.4	26.4	94	24.9	1	3	292	0.00	29.901 
08:25	26.3	26.3	26.3	94	24.8	1	6	22	0.00	29.901 
08:30	26.3	26.3	26.3	93	24.6	1	3	0	0.00	29.916 
08:35	26.1	26.1	26.1	93	24.4	1	3	45	0.00	29.916 
08:40	26.3	26.3	26.3	93	24.6	0	2	22	0.00	29.916 
08:45	26.3	26.3	26.3	93	24.6	1	4	315	0.00	29.921 
08:50	26.3	26.3	26.3	93	24.6	1	3	315	0.00	29.921 
08:55	26.4	26.4	26.4	93	24.7	1	3	315	0.00	29.921 
09:00	26.4	26.4	26.4	93	24.7	1	4	0	0.00	29.935 
09:05	26.4	26.4	26.4	93	24.7	1	4	338	0.00	29.935 
09:10	26.4	26.4	26.4	92	24.4	1	5	292	0.00	29.935 
09:15	26.6	26.6	26.6	92	24.6	1	3	0	0.00	29.944 
09:20	26.6	26.6	26.6	92	24.6	1	4	0	0.00	29.944 
09:25	26.7	26.7	26.7	92	24.7	1	3	22	0.00	29.944 
09:30	26.9	26.9	26.9	91	24.6	1	4	315	0.00	29.952 
09:35	26.9	26.9	26.9	91	24.6	1	4	22	0.00	29.952 
09:40	27.2	27.2	27.2	90	24.7	1	3	315	0.00	29.952 
09:45	27.3	27.3	27.3	90	24.8	1	4	0	0.00	29.965 
09:50	27.3	27.3	27.3	90	24.8	1	4	45	0.00	29.965 
09:55	27.5	27.5	27.5	89	24.7	0	3	22	0.00	29.965 
10:00	27.9	27.9	27.9	89	25.1	0	2	22	0.00	29.980 
10:05	28.1	28.1	28.1	88	25.0	1	3	22	0.00	29.980 
10:10	28.5	28.5	28.5	88	25.4	1	3	315	0.00	29.980 
10:15	28.8	28.8	28.8	88	25.7	1	3	0	0.00	29.994 
10:20	29.0	29.0	29.0	88	25.9	1	4	338	0.00	29.994 
10:25	29.1	29.1	29.1	88	26.0	1	4	0	0.00	29.994 
10:30	29.1	29.1	29.1	87	25.7	2	6	315	0.00	30.024 
10:35	29.1	29.1	29.1	88	26.0	2	6	292	0.00	30.024 
10:40	29.0	29.0	29.0	88	25.9	2	6	315	0.00	30.024 
10:45	28.8	28.8	28.8	87	25.4	2	7	270	0.00	30.041 
10:50	28.5	28.5	28.5	87	25.1	2	6	338	0.00	30.041 
10:55	28.4	28.4	28.4	87	25.0	2	6	315	0.00	30.041 
11:00	28.5	28.5	28.5	87	25.1	1	3	292	0.00	30.049 
11:05	29.1	29.1	29.1	87	25.7	1	6	315	0.00	30.049 
11:10	29.3	29.3	29.3	86	25.6	3	7	315	0.00	30.049 
11:15	28.8	28.8	28.8	84	24.6	3	6	315	0.00	30.069 
11:20	29.0	29.0	29.0	83	24.5	2	6	338	0.00	30.069 
11:25	29.3	29.3	29.3	83	24.8	1	2	315	0.00	30.069 
11:30	29.4	29.4	29.4	81	24.3	2	5	270	0.01	30.063 
11:35	29.7	29.7	29.7	81	24.6	2	4	338	0.00	30.063 
11:40	29.7	29.7	29.7	80	24.3	1	4	315	0.00	30.063 
11:45	29.7	29.7	29.7	80	24.3	2	7	270	0.00	30.071 
11:50	30.1	30.1	30.1	79	24.4	1	3	315	0.00	30.071 
11:55	30.7	30.7	30.7	78	24.7	1	4	270	0.00	30.071 
12:00	30.4	30.4	30.4	76	23.8	2	6	22	0.02	30.073 
12:05	30.6	30.6	30.6	76	24.0	1	4	0	0.00	30.073 
12:10	30.6	30.6	30.6	75	23.6	1	4	0	0.01	30.073 
12:15	30.7	30.7	30.7	75	23.7	1	4	315	0.01	30.072 
12:20	31.2	31.2	31.2	75	24.2	1	3	315	0.01	30.072 
12:25	31.5	31.5	31.5	74	24.2	1	4	0	0.00	30.072 
12:30	31.3	31.3	31.3	72	23.3	1	3	22	0.01	30.071 
12:35	31.2	31.2	31.2	71	22.9	1	2	338	0.01	30.071 
12:40	31.3	31.3	31.3	72	23.3	1	6	338	0.00	30.071 
12:45	31.2	31.2	31.2	68	21.9	2	6	270	0.01	30.074 
12:50	31.3	31.3	31.3	69	22.3	1	4	22	0.00	30.074 
12:55	31.5	31.5	31.5	68	22.2	1	3	22	0.00	30.074 
13:00	31.8	31.8	31.8	68	22.5	1	4	270	0.01	30.088 
13:05	31.6	31.6	31.6	64	20.8	3	7	270	0.00	30.088 
13:10	31.8	31.8	31.8	65	21.4	2	5	292	0.01	30.088 
13:15	31.9	31.9	31.9	63	20.8	2	5	338	0.00	30.106 
13:20	32.1	32.1	32.1	62	20.6	2	4	338	0.00	30.106 
13:25	32.4	32.4	32.4	63	21.2	2	4	270	0.01	30.106 
13:30	32.5	32.5	32.5	62	20.9	3	6	270	0.00	30.120 
13:35	32.7	32.7	32.7	62	21.1	2	4	248	0.00	30.120 
13:40	32.8	32.8	32.8	60	20.5	3	5	248	0.00	30.120 
13:45	32.7	32.7	32.7	60	20.4	2	5	270	0.01	30.121 
13:50	32.8	32.8	32.8	59	20.1	2	6	248	0.00	30.121 
13:55	32.8	32.8	32.8	59	20.1	2	4	315	0.00	30.121 
14:00	32.9	32.9	32.9	60	20.6	2	5	270	0.01	30.122 
14:05	33.1	33.1	33.1	59	20.4	3	5	248	0.00	30.122 
14:10	32.9	32.9	32.9	58	19.8	3	7	270	0.00	30.122 
14:15	32.8	32.8	32.8	57	19.3	3	7	292	0.00	30.126 
14:20	32.9	32.9	32.9	57	19.4	2	5	0	0.00	30.126 
14:25	33.1	33.1	33.1	57	19.5	1	3	338	0.00	30.126 
14:30	33.2	33.2	33.2	56	19.2	2	6	292	0.00	30.122 
14:35	33.2	33.2	33.2	56	19.2	1	3	315	0.00	30.122 
14:40	33.5	33.5	33.5	57	19.9	2	4	270	0.00	30.122 
14:45	33.7	33.7	33.7	58	20.5	2	5	248	0.00	30.124 
14:50	33.7	33.7	33.7	58	20.5	2	5	248	0.00	30.124 
14:55	33.7	33.7	33.7	57	20.1	2	4	292	0.00	30.124 
15:00	33.7	33.7	33.7	57	20.1	2	4	270	0.01	30.119 
15:05	33.8	33.8	33.8	57	20.2	2	6	248	0.00	30.119 
15:10	33.7	33.7	33.7	57	20.1	1	4	292	0.00	30.119 
15:15	33.7	33.7	33.7	57	20.1	1	5	270	0.00	30.121 
15:20	34.0	34.0	34.0	56	20.0	2	5	315	0.00	30.121 
15:25	34.1	34.1	34.1	56	20.1	2	4	270	0.00	30.121 
15:30	34.1	34.1	34.1	55	19.6	2	5	270	0.00	30.121 
15:35	34.1	34.1	34.1	54	19.2	3	6	270	0.00	30.121 
15:40	34.0	34.0	34.0	54	19.1	2	4	315	0.00	30.121 
15:45	34.1	34.1	34.1	56	20.1	2	4	315	0.00	30.136 
15:50	34.1	34.1	34.1	55	19.6	1	4	315	0.00	30.136 
15:55	34.3	34.3	34.3	55	19.8	2	4	292	0.00	30.136 
16:00	34.0	34.0	34.0	55	19.6	2	5	270	0.01	30.149 
16:05	33.8	33.8	33.8	55	19.4	2	4	292	0.00	30.149 
16:10	33.8	33.8	33.8	54	18.9	2	5	315	0.00	30.149 
16:15	33.7	33.7	33.7	53	18.4	3	5	270	0.00	30.161 
16:20	33.7	33.7	33.7	52	18.0	2	5	315	0.00	30.161 
16:25	33.7	33.7	33.7	52	18.0	3	5	315	0.00	30.161 
16:30	33.7	33.7	33.7	52	18.0	1	4	315	0.00	30.153 
16:35	33.8	33.8	33.8	52	18.1	2	5	270	0.00	30.153 
16:40	34.0	34.0	34.0	53	18.7	1	3	315	0.00	30.153 
16:45	34.1	34.1	34.1	54	19.2	1	3	248	0.00	30.152 
16:50	34.0	34.0	34.0	52	18.2	2	5	270	0.00	30.152 
16:55	33.8	33.8	33.8	53	18.5	2	4	270	0.00	30.152 
17:00	33.8	33.8	33.8	54	18.9	2	5	270	0.00	30.155 
17:05	33.5	33.5	33.5	54	18.7	3	6	270	0.00	30.155 
17:10	33.2	33.2	33.2	55	18.8	2	5	270	0.00	30.155 
17:15	33.2	33.2	33.2	55	18.8	2	4	338	0.00	30.166 
17:20	32.9	32.9	32.9	54	18.1	2	4	315	0.00	30.166 
17:25	32.9	32.9	32.9	55	18.5	2	4	292	0.00	30.166 
17:30	32.8	32.8	32.8	55	18.4	1	3	338	0.00	30.168 
17:35	32.7	32.7	32.7	56	18.8	1	3	292	0.00	30.168 
17:40	32.5	32.5	32.5	55	18.2	2	4	292	0.00	30.168 
17:45	32.4	32.4	32.4	55	18.1	1	3	292	0.00	30.168 
17:50	32.1	32.1	32.1	56	18.2	1	3	292	0.00	30.168 
17:55	31.8	31.8	31.8	56	17.9	1	2	292	0.00	30.168 
18:00	31.6	31.6	31.6	57	18.1	1	3	270	0.00	30.168 
18:05	31.5	31.5	31.5	57	18.0	1	2	270	0.00	30.168 
18:10	31.2	31.2	31.2	57	17.8	1	2	270	0.00	30.168 
18:15	31.0	31.0	31.0	58	18.0	0	1	270	0.00	30.171 
18:20	30.7	30.7	30.7	58	17.7	0	1	270	0.00	30.171 
18:25	30.4	30.4	30.4	59	17.8	1	3	270	0.00	30.171 
18:30	30.3	30.3	30.3	59	17.7	0	1	270	0.00	30.175 
18:35	30.0	30.0	30.0	60	17.8	0	1	270	0.00	30.175 
18:40	29.7	29.7	29.7	60	17.5	0	2	270	0.00	30.175 
18:45	29.4	29.4	29.4	61	17.6	0	0	---	0.00	30.181 
18:50	29.1	29.1	29.1	62	17.7	0	0	---	0.00	30.181 
18:55	28.8	28.8	28.8	62	17.4	0	0	---	0.00	30.181 
19:00	28.4	28.4	28.4	63	17.4	0	0	---	0.00	30.188 
19:05	27.8	27.8	27.8	64	17.2	0	0	---	0.00	30.188 
19:10	27.3	27.3	27.3	66	17.5	0	0	---	0.00	30.188 
19:15	26.9	26.9	26.9	67	17.4	0	0	---	0.00	30.193 
19:20	26.6	26.6	26.6	67	17.1	0	0	---	0.00	30.193 
19:25	26.1	26.1	26.1	68	17.0	0	0	---	0.00	30.193 
19:30	25.7	25.7	25.7	69	17.0	0	0	---	0.00	30.201 
19:35	25.3	25.3	25.3	70	16.9	0	0	---	0.00	30.201 
19:40	24.7	24.7	24.7	72	17.0	0	0	---	0.00	30.201 
19:45	24.2	24.2	24.2	72	16.5	0	0	---	0.00	30.197 
19:50	23.9	23.9	23.9	73	16.5	0	0	---	0.00	30.197 
19:55	23.5	23.5	23.5	73	16.1	0	0	---	0.00	30.197 
20:00	23.2	23.2	23.2	74	16.2	0	0	---	0.00	30.195 
20:05	22.9	22.9	22.9	74	15.9	0	0	---	0.00	30.195 
20:10	22.4	22.4	22.4	75	15.7	0	0	---	0.00	30.195 
20:15	22.1	22.1	22.1	75	15.4	0	0	---	0.00	30.206 
20:20	21.9	21.9	21.9	77	15.8	0	0	---	0.00	30.206 
20:25	21.9	21.9	21.9	78	16.1	0	0	---	0.00	30.206 
20:30	21.9	21.9	21.9	79	16.4	0	0	---	0.00	30.213 
20:35	21.9	21.9	21.9	79	16.4	0	0	---	0.00	30.213 
20:40	21.8	21.8	21.8	80	16.6	0	0	---	0.00	30.213 
20:45	21.6	21.6	21.6	80	16.4	0	0	---	0.00	30.217 
20:50	21.6	21.6	21.6	80	16.4	0	0	---	0.00	30.217 
20:55	21.4	21.4	21.4	80	16.2	0	0	---	0.00	30.217 
21:00	21.0	21.0	21.0	80	15.8	0	0	---	0.00	30.217 
21:05	20.6	20.6	20.6	80	15.4	0	0	---	0.00	30.217 
21:10	20.3	20.3	20.3	81	15.4	0	0	---	0.00	30.217 
21:15	20.0	20.0	20.0	81	15.1	0	0	---	0.00	30.220 
21:20	19.9	19.9	19.9	81	15.0	0	0	---	0.00	30.220 
21:25	19.7	19.7	19.7	82	15.1	0	0	---	0.00	30.220 
21:30	19.7	19.7	19.7	82	15.1	0	0	---	0.00	30.223 
21:35	19.7	19.7	19.7	83	15.4	0	0	---	0.00	30.223 
21:40	19.9	19.9	19.9	83	15.6	0	0	---	0.00	30.223 
21:45	20.0	20.0	20.0	84	16.0	0	0	---	0.00	30.228 
21:50	20.0	20.0	20.0	84	16.0	0	0	---	0.00	30.228 
21:55	20.0	20.0	20.0	84	16.0	0	0	---	0.00	30.228 
22:00	20.0	20.0	20.0	84	16.0	0	0	---	0.00	30.229 
22:05	19.9	19.9	19.9	84	15.9	0	0	---	0.00	30.229 
22:10	20.2	20.2	20.2	85	16.4	0	0	---	0.00	30.229 
22:15	20.3	20.3	20.3	85	16.5	0	0	---	0.00	30.230 
22:20	20.3	20.3	20.3	85	16.5	0	0	---	0.00	30.230 
22:25	20.3	20.3	20.3	85	16.5	0	0	---	0.00	30.230 
22:30	20.3	20.3	20.3	85	16.5	0	0	---	0.00	30.228 
22:35	20.3	20.3	20.3	85	16.5	0	0	---	0.00	30.228 
22:40	20.3	20.3	20.3	85	16.5	0	0	---	0.00	30.228 
22:45	20.3	20.3	20.3	85	16.5	0	0	---	0.00	30.224 
22:50	20.3	20.3	20.3	85	16.5	0	0	---	0.00	30.224 
22:55	20.3	20.3	20.3	85	16.5	0	0	---	0.00	30.224 
23:00	20.3	20.3	20.3	86	16.8	0	0	---	0.00	30.217 
23:05	20.5	20.5	20.5	86	17.0	0	0	---	0.00	30.217 
23:10	20.5	20.5	20.5	86	17.0	0	0	---	0.00	30.217 
23:15	20.3	20.3	20.3	86	16.8	0	0	---	0.00	30.209 
23:20	20.3	20.3	20.3	86	16.8	0	0	---	0.00	30.209 
23:25	20.3	20.3	20.3	86	16.8	0	0	---	0.00	30.209 
23:30	20.5	20.5	20.5	86	17.0	0	0	---	0.00	30.210 
23:35	20.5	20.5	20.5	86	17.0	0	0	---	0.00	30.210 
23:40	20.5	20.5	20.5	86	17.0	0	0	---	0.00	30.210 
23:45	20.5	20.5	20.5	86	17.0	0	0	---	0.00	30.201 
23:50	20.5	20.5	20.5	86	17.0	0	0	---	0.00	30.201 
23:55	20.5	20.5	20.5	86	17.0	0	0	---	0.00	30.201 

CoCoRaHS
IN-AL-39
A2 Web Hosting
Creative Commons License
GoDaddy
search engine by freefind advanced

loaded 2018-11-17 06:13:46 • last modified 2010-11-18 10:43:29
Privacy PolicyDisclaimer
• wx.awcolley.com is powered by PmWiki v.2002016 •
• all content (unless otherwise noted) © 2018 A W Colley